Terminal Aerodrome Forecast
Issued by NWS North Platte, NE

Home | Current Version | Previous Version | Text Only | Print | Product List | Glossary On
Versions: 1 2 3 4 5 6 7 8 9 10 11 12 13 14 15 16
000
FTUS43 KLBF 270500
TAFLBF
TAF
KLBF 270520Z 2706/2806 VRB06KT P6SM SCT150
     FM271600 17010KT P6SM BKN150
     FM271900 17014G20KT P6SM BKN120
     FM280000 16013KT P6SM OVC080=

USA.gov is the U.S. government's official web portal to all federal, state and local government web resources and services.